Time;durP1;ratioP1;P1;durP2;ratioP2;P2;SDS_P1;SDS_P2;PMS_P1;PMS_P2;Temp;Humidity;BMP_temperature;BMP_pressure;BME280_temperature;BME280_humidity;BME280_pressure;Samples;Min_cycle;Max_cycle;Signal;HPM_P1;HPM_P2
2021/06/19 00:00:26;;;;;;;10.87;9.87;;;23.20;99.90;;;;;;4938296;29;20211;-79
2021/06/19 00:02:52;;;;;;;9.33;8.43;;;23.30;99.90;;;;;;4939088;29;20210;-79
2021/06/19 00:05:20;;;;;;;9.70;8.90;;;23.30;99.90;;;;;;4938130;29;20199;-79
2021/06/19 00:07:47;;;;;;;9.37;8.57;;;23.20;99.90;;;;;;4936609;29;20230;-79
2021/06/19 00:10:15;;;;;;;9.20;8.40;;;23.20;99.90;;;;;;4936635;29;20203;-78
2021/06/19 00:12:43;;;;;;;9.13;8.33;;;23.30;99.90;;;;;;4936013;29;20223;-79
2021/06/19 00:15:13;;;;;;;9.80;8.80;;;23.30;99.90;;;;;;4936880;29;20199;-78
2021/06/19 00:17:42;;;;;;;9.77;8.87;;;23.40;99.90;;;;;;4935415;29;20242;-78
2021/06/19 00:20:11;;;;;;;15.80;10.57;;;23.50;99.90;;;;;;4935864;29;20565;-79
2021/06/19 00:22:38;;;;;;;13.27;9.73;;;23.50;99.90;;;;;;4936068;29;20593;-80
2021/06/19 00:25:06;;;;;;;13.13;9.67;;;23.40;99.90;;;;;;4937637;29;20211;-79
2021/06/19 00:27:34;;;;;;;11.27;8.93;;;23.40;99.90;;;;;;4936954;29;20227;-79
2021/06/19 00:30:01;;;;;;;13.13;7.57;;;23.30;99.90;;;;;;4938127;29;20203;-79
2021/06/19 00:32:27;;;;;;;8.37;6.73;;;23.20;99.90;;;;;;4937429;29;20274;-79
2021/06/19 00:34:56;;;;;;;11.37;7.50;;;23.10;99.90;;;;;;4935786;29;20703;-79
2021/06/19 00:37:22;;;;;;;12.87;6.77;;;23.00;99.90;;;;;;4936967;29;20207;-79
2021/06/19 00:39:49;;;;;;;8.03;6.30;;;23.00;99.90;;;;;;4930117;29;20685;-79
2021/06/19 00:42:19;;;;;;;11.63;6.93;;;22.90;99.90;;;;;;4936570;29;20200;-79
2021/06/19 00:44:46;;;;;;;9.30;7.60;;;22.80;99.90;;;;;;4936767;29;20203;-79
2021/06/19 00:47:13;;;;;;;9.67;7.10;;;22.80;99.90;;;;;;4934389;29;20233;-79
2021/06/19 00:49:40;;;;;;;11.23;8.00;;;22.70;99.90;;;;;;4936254;29;20206;-79
2021/06/19 00:52:08;;;;;;;13.20;7.60;;;22.70;99.90;;;;;;4950753;28;20566;-79
2021/06/19 00:54:35;;;;;;;8.10;7.20;;;22.60;99.90;;;;;;4936655;29;20204;-79
2021/06/19 00:57:03;;;;;;;12.53;6.73;;;22.50;99.90;;;;;;4935942;29;20218;-78
2021/06/19 00:59:30;;;;;;;9.23;6.97;;;22.40;99.90;;;;;;4936111;29;20208;-79
2021/06/19 01:01:57;;;;;;;12.07;6.37;;;22.40;99.90;;;;;;4934668;29;20212;-79
2021/06/19 01:04:24;;;;;;;7.33;6.33;;;22.40;99.90;;;;;;4934740;29;20203;-79
2021/06/19 01:06:51;;;;;;;8.23;6.33;;;22.30;99.90;;;;;;4933896;29;20219;-79
2021/06/19 01:09:19;;;;;;;9.70;6.73;;;22.30;99.90;;;;;;4936138;29;20757;-78
2021/06/19 01:11:47;;;;;;;8.67;6.57;;;22.30;99.90;;;;;;4935968;29;20206;-79
2021/06/19 01:14:14;;;;;;;7.23;6.47;;;22.30;99.90;;;;;;4931276;29;20207;-79
2021/06/19 01:16:46;;;;;;;9.60;6.73;;;22.30;99.90;;;;;;4934806;29;20219;-79
2021/06/19 01:19:13;;;;;;;7.20;6.50;;;22.20;99.90;;;;;;4934338;29;20679;-78
2021/06/19 01:21:40;;;;;;;7.17;6.20;;;22.20;99.90;;;;;;4935633;29;20202;-78
2021/06/19 01:24:13;;;;;;;9.10;6.37;;;22.20;99.90;;;;;;4933901;29;20229;-79
2021/06/19 01:26:42;;;;;;;8.37;6.33;;;22.20;99.90;;;;;;4934888;29;20218;-79
2021/06/19 01:29:09;;;;;;;7.00;5.70;;;22.10;99.90;;;;;;4935171;29;20210;-79
2021/06/19 01:31:38;;;;;;;11.00;6.40;;;22.10;99.90;;;;;;4934746;29;20581;-79
2021/06/19 01:34:05;;;;;;;8.37;6.00;;;22.00;99.90;;;;;;4934755;29;20206;-79
2021/06/19 01:36:32;;;;;;;7.20;6.00;;;22.00;99.90;;;;;;4933385;29;20229;-78
2021/06/19 01:38:59;;;;;;;6.13;5.47;;;22.00;99.90;;;;;;4933533;29;20582;-79
2021/06/19 01:41:28;;;;;;;6.83;6.13;;;22.00;99.90;;;;;;4934985;29;20696;-79
2021/06/19 01:44:02;;;;;;;7.93;5.70;;;22.00;99.90;;;;;;4928017;29;20738;-79
2021/06/19 01:46:29;;;;;;;6.37;5.80;;;22.00;99.90;;;;;;4932089;29;20222;-79
2021/06/19 01:48:56;;;;;;;6.30;5.70;;;21.90;99.90;;;;;;4935578;29;20270;-79
2021/06/19 01:51:23;;;;;;;6.20;5.60;;;21.90;99.90;;;;;;4933374;29;20253;-79
2021/06/19 01:53:50;;;;;;;6.70;5.93;;;21.90;99.90;;;;;;4933383;29;20208;-79
2021/06/19 01:56:17;;;;;;;7.07;5.97;;;21.90;99.90;;;;;;4934869;29;20730;-78
2021/06/19 01:58:44;;;;;;;6.00;5.50;;;21.90;99.90;;;;;;4936240;29;20684;-78
2021/06/19 02:01:14;;;;;;;7.70;6.27;;;21.80;99.90;;;;;;4937248;29;20213;-79
2021/06/19 02:03:42;;;;;;;6.13;5.50;;;21.80;99.90;;;;;;4938471;29;20209;-79
2021/06/19 02:06:10;;;;;;;6.20;5.53;;;21.80;99.90;;;;;;4936771;29;20727;-79
2021/06/19 02:08:37;;;;;;;8.53;5.90;;;21.80;99.90;;;;;;4936973;29;20672;-80
2021/06/19 02:11:05;;;;;;;7.80;5.60;;;21.80;99.90;;;;;;4938166;29;20221;-78
2021/06/19 02:13:32;;;;;;;7.87;6.47;;;21.80;99.90;;;;;;4941878;29;20577;-78
2021/06/19 02:15:59;;;;;;;7.37;6.10;;;21.90;99.90;;;;;;4936898;29;20249;-79
2021/06/19 02:18:28;;;;;;;7.13;6.07;;;21.90;99.90;;;;;;4938252;29;20189;-79
2021/06/19 02:20:55;;;;;;;6.37;5.77;;;21.80;99.90;;;;;;4937897;29;20606;-78
2021/06/19 02:23:23;;;;;;;6.70;6.17;;;21.80;99.90;;;;;;4938244;29;20577;-79
2021/06/19 02:25:52;;;;;;;6.20;5.60;;;21.80;99.90;;;;;;4930437;29;20216;-78
2021/06/19 02:28:21;;;;;;;6.37;5.77;;;21.70;99.90;;;;;;4933026;29;20225;-78
2021/06/19 02:30:50;;;;;;;6.40;5.90;;;21.70;99.90;;;;;;4936717;29;20692;-78
2021/06/19 02:33:19;;;;;;;6.10;5.50;;;21.60;99.90;;;;;;4936865;29;20590;-78
2021/06/19 02:35:48;;;;;;;6.23;5.53;;;21.60;99.90;;;;;;4936683;29;20228;-78
2021/06/19 02:38:16;;;;;;;6.00;5.40;;;21.50;99.90;;;;;;4937773;29;20200;-79
2021/06/19 02:40:44;;;;;;;6.33;5.77;;;21.50;99.90;;;;;;4936187;29;20220;-78
2021/06/19 02:43:12;;;;;;;6.40;5.70;;;21.40;99.90;;;;;;4939939;29;20253;-79
2021/06/19 02:45:39;;;;;;;6.10;5.60;;;21.40;99.90;;;;;;4936334;29;20229;-79
2021/06/19 02:48:07;;;;;;;5.77;5.20;;;21.30;99.90;;;;;;4936303;29;20286;-77
2021/06/19 02:50:38;;;;;;;7.10;5.63;;;21.30;99.90;;;;;;4935152;29;20209;-77
2021/06/19 02:53:07;;;;;;;7.83;6.27;;;21.20;99.90;;;;;;4935920;29;20209;-76
2021/06/19 02:55:36;;;;;;;6.40;5.90;;;21.20;99.90;;;;;;4936893;29;20204;-76
2021/06/19 02:58:04;;;;;;;6.53;5.83;;;21.10;99.90;;;;;;4926741;29;20676;-76
2021/06/19 03:00:35;;;;;;;8.33;6.47;;;21.10;99.90;;;;;;4935209;29;20680;-76
2021/06/19 03:03:07;;;;;;;8.57;6.10;;;21.10;99.90;;;;;;4932192;29;20219;-77
2021/06/19 03:06:00;;;;;;;6.67;5.97;;;21.00;99.90;;;;;;4942400;28;20584;-76
2021/06/19 03:08:41;;;;;;;11.63;6.80;;;21.10;99.90;;;;;;4933511;29;20219;-76
2021/06/19 03:11:17;;;;;;;8.43;6.93;;;21.10;99.90;;;;;;4934642;29;20203;-77
2021/06/19 03:13:57;;;;;;;9.60;6.67;;;21.10;99.90;;;;;;4926351;29;20205;-77
2021/06/19 03:57:29;;;;;;;9.73;7.30;;;20.90;99.90;;;;;;3452843;23;20222;-76
2021/06/19 04:00:22;;;;;;;8.50;7.40;;;20.90;99.90;;;;;;4930746;29;20200;-76
2021/06/19 04:02:58;;;;;;;10.03;7.57;;;20.90;99.90;;;;;;4934597;29;20578;-75
2021/06/19 04:18:19;;;;;;;8.70;7.00;;;21.10;99.90;;;;;;4946488;28;20216;-76
2021/06/19 04:20:46;;;;;;;9.30;7.80;;;21.10;99.90;;;;;;4926172;29;20332;-76
2021/06/19 04:23:22;;;;;;;9.13;7.27;;;21.10;99.90;;;;;;4939815;29;20239;-75
2021/06/19 04:25:49;;;;;;;12.60;7.67;;;21.10;99.90;;;;;;4927430;29;20212;-78
2021/06/19 04:28:16;;;;;;;8.37;7.37;;;21.20;99.90;;;;;;4917871;29;20301;-78
2021/06/19 04:30:53;;;;;;;10.67;7.40;;;21.20;99.90;;;;;;4917788;29;20202;-77
2021/06/19 04:33:26;;;;;;;8.37;7.30;;;21.30;99.90;;;;;;4932062;29;20237;-78
2021/06/19 04:35:54;;;;;;;10.50;7.10;;;21.40;99.90;;;;;;4967429;23;20304;-78
2021/06/19 04:38:26;;;;;;;7.77;7.07;;;21.40;99.90;;;;;;4935330;29;20207;-79
2021/06/19 04:40:57;;;;;;;12.93;8.03;;;21.50;99.90;;;;;;4935282;29;20569;-78
2021/06/19 04:43:34;;;;;;;8.97;7.83;;;21.50;99.90;;;;;;4931730;29;20211;-78
2021/06/19 04:46:06;;;;;;;10.53;7.30;;;21.50;99.90;;;;;;4926635;29;20235;-78
2021/06/19 04:48:39;;;;;;;8.50;7.50;;;21.60;99.90;;;;;;4930620;29;20221;-78
2021/06/19 04:51:09;;;;;;;8.13;7.33;;;21.50;99.90;;;;;;4933970;29;20202;-78
2021/06/19 04:53:42;;;;;;;9.90;7.03;;;21.60;99.90;;;;;;4934256;29;20218;-78
2021/06/19 04:56:11;;;;;;;8.17;7.20;;;21.60;99.90;;;;;;4923046;29;20281;-79
2021/06/19 04:58:43;;;;;;;8.60;7.23;;;21.70;99.90;;;;;;4923669;29;20730;-79
2021/06/19 05:01:15;;;;;;;8.73;7.83;;;21.70;99.90;;;;;;4922570;29;20277;-79
2021/06/19 05:03:57;;;;;;;8.30;7.50;;;21.80;99.90;;;;;;4929383;29;20214;-77
2021/06/19 05:06:24;;;;;;;9.07;7.67;;;22.00;99.90;;;;;;4965317;23;20232;-77
2021/06/19 05:08:54;;;;;;;7.93;7.10;;;22.20;99.90;;;;;;4945278;29;20226;-78
2021/06/19 05:11:36;;;;;;;7.60;6.90;;;22.50;99.90;;;;;;4945166;29;20210;-79
2021/06/19 05:20:23;;;;;;;11.23;7.83;;;22.60;99.90;;;;;;4910480;29;20198;-80
2021/06/19 05:26:14;;;;;;;9.27;7.20;;;22.70;99.90;;;;;;4929776;28;20690;-80
2021/06/19 05:32:03;;;;;;;9.13;7.37;;;22.80;99.90;;;;;;4867617;29;20734;-79
2021/06/19 05:34:36;;;;;;;7.90;7.00;;;22.90;99.90;;;;;;4907542;29;20207;-79
2021/06/19 05:37:07;;;;;;;9.50;7.13;;;23.30;99.90;;;;;;4895442;29;20233;-79
2021/06/19 05:39:42;;;;;;;7.07;6.37;;;23.70;99.90;;;;;;4896378;29;20698;-78
2021/06/19 05:42:14;;;;;;;7.77;5.57;;;24.40;99.90;;;;;;4906809;29;20751;-78
2021/06/19 05:44:41;;;;;;;7.10;6.50;;;25.10;99.90;;;;;;4899639;29;20642;-79
2021/06/19 05:47:09;;;;;;;9.57;6.60;;;25.70;99.90;;;;;;4900156;29;20252;-79
2021/06/19 05:49:39;;;;;;;7.97;7.17;;;26.10;99.90;;;;;;4930359;29;20222;-78
2021/06/19 06:03:56;;;;;;;9.80;6.80;;;28.50;99.90;;;;;;4047192;26;20586;-80
2021/06/19 06:06:54;;;;;;;13.03;7.43;;;28.30;99.90;;;;;;4956795;23;20238;-79
2021/06/19 06:12:42;;;;;;;9.43;6.63;;;28.90;99.90;;;;;;4932384;29;20195;-80
2021/06/19 06:15:12;;;;;;;9.20;6.57;;;29.40;99.90;;;;;;4931589;29;20202;-80
2021/06/19 06:18:00;;;;;;;12.30;7.03;;;29.40;99.90;;;;;;4959979;23;20226;-77
2021/06/19 06:20:27;;;;;;;16.63;7.40;;;29.30;99.90;;;;;;4950824;28;20205;-77
2021/06/19 06:22:57;;;;;;;7.97;6.07;;;29.60;99.90;;;;;;4951824;28;20199;-78
2021/06/19 06:25:25;;;;;;;8.83;6.03;;;30.00;99.90;;;;;;4955601;28;20197;-77
2021/06/19 06:27:53;;;;;;;16.90;6.80;;;29.60;99.90;;;;;;4951031;28;20226;-78
2021/06/19 06:30:25;;;;;;;10.80;6.70;;;29.30;99.90;;;;;;4949865;28;20203;-81
2021/06/19 06:32:58;;;;;;;12.00;6.47;;;29.10;99.90;;;;;;4940008;28;20595;-79
2021/06/19 06:36:14;;;;;;;10.93;6.60;;;29.20;99.90;;;;;;4943637;28;20218;-79
2021/06/19 06:39:14;;;;;;;14.23;7.03;;;29.40;99.90;;;;;;4855213;29;20206;-79
2021/06/19 06:52:59;;;;;;;;;;;;;;;;;;;;;
2021/06/19 06:59:02;;;;;;;8.30;6.10;;;30.40;99.90;;;;;;4887628;29;20722;-79
2021/06/19 07:01:40;;;;;;;13.50;6.23;;;30.30;99.90;;;;;;4935342;29;20227;-79
2021/06/19 07:04:08;;;;;;;7.17;5.97;;;30.40;99.90;;;;;;4924276;29;20302;-81
2021/06/19 07:06:36;;;;;;;10.27;6.30;;;30.70;99.90;;;;;;4919843;29;20284;-81
2021/06/19 07:09:03;;;;;;;8.57;6.47;;;30.90;99.90;;;;;;4919810;29;20706;-81
2021/06/19 07:11:30;;;;;;;12.03;6.17;;;30.80;99.90;;;;;;4921673;29;20204;-81
2021/06/19 07:14:00;;;;;;;9.73;6.37;;;31.00;99.90;;;;;;4916104;29;20259;-84
2021/06/19 07:16:32;;;;;;;7.57;5.83;;;31.30;99.90;;;;;;4920903;29;20789;-82
2021/06/19 07:31:00;;;;;;;11.53;6.00;;;31.40;99.90;;;;;;4850573;29;20230;-83
2021/06/19 07:34:13;;;;;;;10.00;6.57;;;31.70;99.90;;;;;;4842634;29;20218;-83
2021/06/19 07:48:11;;;;;;;9.57;6.27;;;31.20;99.90;;;;;;4899091;23;20229;-82
2021/06/19 07:50:51;;;;;;;9.50;6.17;;;31.50;99.90;;;;;;4904939;29;20199;-79
2021/06/19 07:53:21;;;;;;;11.60;6.37;;;31.60;99.90;;;;;;4948679;29;20563;-78
2021/06/19 07:55:51;;;;;;;9.23;6.10;;;31.40;99.90;;;;;;4931132;29;20582;-77
2021/06/19 07:58:23;;;;;;;9.70;6.33;;;31.40;99.90;;;;;;4919250;29;20213;-77
2021/06/19 08:00:51;;;;;;;13.97;6.90;;;31.40;99.90;;;;;;4918826;29;20247;-77
2021/06/19 08:03:18;;;;;;;11.83;6.20;;;31.50;99.90;;;;;;4918299;29;20211;-78
2021/06/19 08:05:46;;;;;;;14.47;6.60;;;31.60;99.90;;;;;;4914561;29;20746;-77
2021/06/19 08:08:15;;;;;;;14.00;7.47;;;31.70;99.40;;;;;;4907164;29;20321;-78
2021/06/19 08:10:42;;;;;;;11.13;7.20;;;31.70;99.90;;;;;;4926092;29;20804;-78
2021/06/19 08:13:10;;;;;;;10.43;6.97;;;31.80;99.90;;;;;;4918126;29;20212;-77
2021/06/19 08:15:37;;;;;;;13.53;7.37;;;32.00;99.30;;;;;;4928014;29;20195;-78
2021/06/19 08:18:04;;;;;;;12.07;7.00;;;31.80;98.50;;;;;;4918362;29;20200;-77
2021/06/19 08:20:32;;;;;;;10.30;6.63;;;31.90;98.20;;;;;;4914151;29;20204;-78
2021/06/19 08:23:01;;;;;;;9.20;6.77;;;32.00;97.50;;;;;;4901221;29;20231;-78
2021/06/19 08:25:29;;;;;;;13.50;6.77;;;32.20;97.70;;;;;;4912164;29;20283;-78
2021/06/19 08:27:56;;;;;;;10.97;6.70;;;32.50;98.70;;;;;;4909102;29;20204;-78
2021/06/19 08:30:24;;;;;;;14.20;6.70;;;32.30;98.50;;;;;;4931551;29;20204;-78
2021/06/19 08:32:54;;;;;;;13.03;6.50;;;32.40;98.10;;;;;;4901071;29;20242;-77
2021/06/19 08:35:26;;;;;;;9.10;7.07;;;32.40;97.90;;;;;;4909888;29;20244;-77
2021/06/19 08:37:53;;;;;;;10.80;7.10;;;32.20;99.00;;;;;;4911964;29;20252;-77
2021/06/19 08:40:22;;;;;;;12.73;7.63;;;32.30;99.50;;;;;;4912216;29;20208;-78
2021/06/19 08:42:52;;;;;;;9.60;7.30;;;32.20;98.40;;;;;;4907263;29;20593;-78
2021/06/19 08:45:23;;;;;;;13.60;7.17;;;32.30;98.40;;;;;;4916214;29;20192;-77
2021/06/19 08:47:52;;;;;;;10.70;6.87;;;32.70;98.10;;;;;;4916765;29;20208;-78
2021/06/19 08:50:19;;;;;;;10.33;6.53;;;32.50;97.80;;;;;;4916010;29;20302;-77
2021/06/19 08:52:48;;;;;;;8.47;6.40;;;32.50;97.70;;;;;;4914159;29;20211;-78
2021/06/19 08:55:16;;;;;;;11.53;6.87;;;32.60;98.60;;;;;;4905823;29;20208;-78
2021/06/19 08:57:45;;;;;;;11.80;6.57;;;32.90;97.50;;;;;;4915103;29;20216;-78
2021/06/19 09:00:18;;;;;;;11.40;6.88;;;32.70;98.30;;;;;;4917644;29;20208;-77
2021/06/19 09:02:48;;;;;;;8.33;6.70;;;32.90;99.00;;;;;;4899699;29;20203;-81
2021/06/19 09:05:17;;;;;;;12.43;6.80;;;33.10;98.30;;;;;;4910829;29;20208;-81
2021/06/19 09:07:49;;;;;;;9.83;6.40;;;32.80;97.10;;;;;;4911274;29;20200;-79
2021/06/19 09:10:25;;;;;;;8.60;6.40;;;32.60;98.20;;;;;;4913109;29;20309;-80
2021/06/19 09:12:59;;;;;;;9.10;7.10;;;33.00;97.50;;;;;;4907183;29;20593;-80
2021/06/19 09:15:27;;;;;;;14.05;6.93;;;32.90;97.60;;;;;;4924629;29;20203;-80
2021/06/19 09:18:02;;;;;;;14.43;7.50;;;33.10;97.70;;;;;;4900291;29;20232;-81
2021/06/19 09:20:38;;;;;;;9.43;6.30;;;33.00;97.20;;;;;;4914832;29;20237;-80
2021/06/19 09:23:06;;;;;;;11.17;6.77;;;33.40;96.70;;;;;;4916713;29;20211;-80
2021/06/19 09:25:33;;;;;;;7.73;6.23;;;33.40;96.90;;;;;;4916681;29;20200;-81
2021/06/19 09:28:07;;;;;;;8.97;6.20;;;33.70;97.30;;;;;;4908786;29;20219;-81
2021/06/19 09:30:35;;;;;;;11.27;6.43;;;33.50;96.70;;;;;;4911082;29;20196;-79
2021/06/19 09:33:05;;;;;;;9.25;6.53;;;33.40;95.80;;;;;;4912092;29;20865;-80
2021/06/19 09:35:40;;;;;;;10.93;6.20;;;33.00;96.80;;;;;;4906648;29;20287;-80
2021/06/19 09:38:08;;;;;;;12.47;7.07;;;32.80;97.00;;;;;;4918363;29;20270;-80
2021/06/19 09:40:37;;;;;;;8.37;6.30;;;33.10;96.50;;;;;;4912678;29;20294;-80
2021/06/19 09:43:14;;;;;;;8.07;6.77;;;33.20;97.10;;;;;;4902032;29;20247;-80
2021/06/19 09:45:46;;;;;;;9.27;6.43;;;33.50;97.20;;;;;;4930260;29;20251;-81
2021/06/19 09:48:32;;;;;;;8.47;6.80;;;33.40;97.00;;;;;;4911695;29;20215;-80
2021/06/19 09:51:14;;;;;;;9.97;6.87;;;33.60;96.80;;;;;;4910768;29;20287;-81
2021/06/19 09:53:45;;;;;;;9.07;6.47;;;33.50;97.00;;;;;;4915149;29;20224;-80
2021/06/19 10:03:26;;;;;;;10.07;7.47;;;33.50;95.40;;;;;;4914580;29;20230;-81
2021/06/19 10:13:11;;;;;;;9.90;7.80;;;33.70;97.10;;;;;;4880220;29;20277;-80
2021/06/19 10:19:31;;;;;;;13.87;8.57;;;33.40;96.30;;;;;;4940292;28;20203;-79
2021/06/19 10:22:20;;;;;;;12.63;8.33;;;33.30;95.70;;;;;;4955564;28;20204;-79
2021/06/19 10:24:51;;;;;;;9.87;7.97;;;33.10;96.80;;;;;;4941778;29;20195;-80
2021/06/19 10:30:10;;;;;;;14.67;8.13;;;32.70;96.90;;;;;;4908088;29;20223;-81
2021/06/19 10:32:39;;;;;;;9.60;8.17;;;33.00;96.60;;;;;;4916385;29;20236;-82
2021/06/19 10:35:06;;;;;;;10.47;8.27;;;32.70;96.90;;;;;;4917165;29;20219;-81
2021/06/19 10:37:35;;;;;;;9.67;8.57;;;32.70;97.50;;;;;;4918975;29;20238;-81
2021/06/19 10:40:17;;;;;;;10.00;8.97;;;32.40;96.80;;;;;;4922413;29;20279;-80
2021/06/19 10:42:45;;;;;;;11.83;9.00;;;32.70;97.90;;;;;;4921101;29;20298;-80
2021/06/19 10:45:20;;;;;;;13.93;8.37;;;32.90;97.20;;;;;;4918545;29;20259;-80
2021/06/19 10:48:06;;;;;;;11.13;8.10;;;32.70;96.20;;;;;;4921703;29;20191;-80
2021/06/19 10:50:34;;;;;;;13.17;8.13;;;32.90;96.90;;;;;;4917110;29;20231;-79
2021/06/19 10:53:10;;;;;;;11.60;8.03;;;32.70;96.30;;;;;;4917002;29;20565;-79
2021/06/19 10:55:53;;;;;;;9.60;8.03;;;32.50;97.00;;;;;;4921455;29;20214;-80
2021/06/19 10:58:24;;;;;;;15.33;8.77;;;32.50;96.60;;;;;;4917903;29;20312;-80
2021/06/19 11:00:52;;;;;;;12.40;9.03;;;32.50;97.70;;;;;;4921251;29;20219;-80
2021/06/19 11:03:37;;;;;;;10.50;7.90;;;32.50;96.20;;;;;;4922997;29;20878;-78
2021/06/19 11:06:19;;;;;;;8.87;7.77;;;32.50;96.80;;;;;;4923284;29;20588;-78
2021/06/19 11:09:05;;;;;;;13.20;8.23;;;32.80;96.30;;;;;;4917163;29;20540;-80
2021/06/19 11:11:54;;;;;;;13.43;8.43;;;32.90;96.50;;;;;;4915278;29;20215;-82
2021/06/19 11:14:55;;;;;;;10.37;8.07;;;32.80;96.00;;;;;;4922941;29;20212;-81
2021/06/19 11:17:59;;;;;;;10.93;7.77;;;32.70;95.80;;;;;;4932296;29;20236;-81
2021/06/19 11:20:30;;;;;;;12.63;7.90;;;32.60;97.00;;;;;;4909094;29;20200;-80
2021/06/19 11:23:00;;;;;;;8.73;7.70;;;32.90;97.10;;;;;;4921642;29;20208;-81
2021/06/19 11:25:41;;;;;;;17.80;8.00;;;33.10;96.00;;;;;;4926371;29;20211;-80
2021/06/19 11:28:10;;;;;;;9.90;7.93;;;32.50;94.90;;;;;;4917489;29;20290;-81
2021/06/19 11:30:47;;;;;;;12.00;7.93;;;32.30;96.20;;;;;;4915066;29;20322;-80
2021/06/19 11:33:52;;;;;;;14.30;8.03;;;32.10;95.90;;;;;;4929481;29;20282;-81
2021/06/19 11:36:57;;;;;;;13.07;8.37;;;32.30;96.50;;;;;;4927187;29;20227;-81
2021/06/19 11:39:34;;;;;;;13.03;7.93;;;32.30;96.70;;;;;;4921876;29;20206;-81
2021/06/19 11:42:02;;;;;;;11.17;8.50;;;32.40;96.60;;;;;;4919186;29;20623;-81
2021/06/19 11:44:33;;;;;;;9.77;7.53;;;32.50;94.90;;;;;;4923001;29;20203;-81
2021/06/19 11:47:07;;;;;;;10.80;8.13;;;32.60;95.70;;;;;;4945540;23;20366;-77
2021/06/19 11:49:39;;;;;;;12.87;8.60;;;32.60;94.80;;;;;;4936623;29;20219;-76
2021/06/19 11:52:08;;;;;;;9.83;8.03;;;32.50;95.60;;;;;;4935966;29;20294;-78
2021/06/19 11:54:42;;;;;;;16.40;8.30;;;32.20;95.60;;;;;;4936205;29;20211;-76
2021/06/19 11:57:12;;;;;;;11.37;7.90;;;31.90;95.30;;;;;;4934081;29;20294;-77
2021/06/19 11:59:38;;;;;;;12.00;7.93;;;31.90;96.70;;;;;;4931910;29;20200;-76
2021/06/19 12:02:13;;;;;;;11.50;8.50;;;31.80;96.30;;;;;;4935703;29;20774;-76
2021/06/19 12:04:40;;;;;;;9.50;8.00;;;31.80;96.10;;;;;;4948317;28;20200;-80
2021/06/19 12:07:06;;;;;;;14.70;7.57;;;31.90;95.80;;;;;;4935708;29;20231;-77
2021/06/19 12:09:35;;;;;;;10.57;7.90;;;31.80;96.10;;;;;;4934589;29;20207;-77
2021/06/19 12:12:04;;;;;;;16.97;7.90;;;31.70;96.20;;;;;;4934380;29;20295;-76
2021/06/19 12:14:33;;;;;;;15.53;8.13;;;31.90;96.80;;;;;;4933046;29;20210;-77
2021/06/19 12:17:02;;;;;;;12.57;7.97;;;32.00;95.80;;;;;;4935060;29;20575;-79
2021/06/19 12:19:31;;;;;;;9.13;7.70;;;32.00;94.90;;;;;;4935029;29;20273;-77
2021/06/19 12:22:00;;;;;;;11.17;7.17;;;31.90;95.40;;;;;;4936245;29;20203;-77
2021/06/19 12:24:29;;;;;;;11.93;7.73;;;32.00;95.20;;;;;;4934064;29;20207;-76
2021/06/19 12:27:01;;;;;;;10.83;7.80;;;32.00;95.10;;;;;;4935654;29;20227;-77
2021/06/19 12:29:42;;;;;;;10.60;8.50;;;32.10;94.90;;;;;;4945553;28;20212;-76
2021/06/19 12:32:27;;;;;;;13.70;7.77;;;32.20;95.20;;;;;;4935067;29;20199;-76
2021/06/19 12:34:56;;;;;;;8.80;7.90;;;32.20;94.60;;;;;;4934770;29;20222;-77
2021/06/19 12:37:26;;;;;;;9.10;7.63;;;32.30;94.30;;;;;;4935247;29;20222;-77
2021/06/19 12:39:53;;;;;;;9.10;8.20;;;32.50;95.40;;;;;;4932224;29;20699;-77
2021/06/19 12:42:37;;;;;;;15.67;8.20;;;32.40;94.50;;;;;;4928531;29;20561;-78
2021/06/19 12:45:17;;;;;;;12.10;8.00;;;32.60;94.60;;;;;;4947340;28;20208;-76
2021/06/19 12:47:46;;;;;;;15.00;8.30;;;32.50;94.40;;;;;;4934370;29;20239;-78
2021/06/19 12:50:15;;;;;;;12.80;7.43;;;32.50;94.40;;;;;;4932470;29;20210;-77
2021/06/19 12:52:59;;;;;;;10.63;7.80;;;32.20;94.10;;;;;;4932780;29;20199;-78
2021/06/19 12:55:27;;;;;;;13.47;7.57;;;32.10;94.50;;;;;;4948579;29;20195;-77
2021/06/19 12:58:05;;;;;;;8.97;7.60;;;32.00;94.70;;;;;;4933105;29;20273;-77
2021/06/19 13:00:39;;;;;;;8.27;7.37;;;32.10;94.90;;;;;;4934130;29;20195;-78
2021/06/19 13:03:06;;;;;;;12.53;7.50;;;32.20;94.90;;;;;;4932859;29;20203;-77
2021/06/19 13:05:33;;;;;;;12.63;7.73;;;32.10;93.70;;;;;;4948829;29;20203;-78
2021/06/19 13:08:13;;;;;;;8.57;7.67;;;31.80;94.00;;;;;;4932987;29;20227;-76
2021/06/19 13:10:41;;;;;;;9.60;7.93;;;31.70;93.60;;;;;;4938569;28;20212;-76
2021/06/19 13:13:08;;;;;;;15.30;8.77;;;31.70;94.10;;;;;;4933367;29;20208;-76
2021/06/19 13:15:36;;;;;;;11.30;8.00;;;31.70;93.60;;;;;;4932458;29;20255;-77
2021/06/19 13:18:13;;;;;;;8.47;7.63;;;31.80;93.50;;;;;;4924619;29;20238;-77
2021/06/19 13:20:41;;;;;;;9.83;7.97;;;31.70;93.20;;;;;;4932937;29;20218;-78
2021/06/19 13:23:10;;;;;;;12.80;8.20;;;31.80;93.30;;;;;;4932992;29;20204;-77
2021/06/19 13:25:59;;;;;;;17.43;8.23;;;31.80;93.20;;;;;;4933460;29;20231;-76
2021/06/19 13:28:47;;;;;;;15.83;8.50;;;31.80;93.20;;;;;;4931301;29;20282;-77
2021/06/19 13:31:19;;;;;;;11.20;8.00;;;31.70;92.80;;;;;;4931282;29;20270;-78
2021/06/19 13:33:48;;;;;;;9.47;7.90;;;31.80;94.40;;;;;;4932651;29;20195;-77
2021/06/19 13:36:25;;;;;;;8.73;7.87;;;31.80;93.40;;;;;;4933331;29;20238;-77
2021/06/19 13:38:55;;;;;;;15.13;8.27;;;32.00;94.30;;;;;;4933311;29;20194;-76
2021/06/19 13:41:27;;;;;;;11.17;8.07;;;31.90;93.20;;;;;;4934772;29;20206;-75
2021/06/19 13:43:54;;;;;;;14.03;8.10;;;31.90;94.30;;;;;;4933938;29;20675;-79
2021/06/19 13:46:23;;;;;;;18.60;8.93;;;31.90;93.30;;;;;;4931571;29;20261;-75
2021/06/19 13:48:49;;;;;;;14.00;8.90;;;31.80;93.00;;;;;;4931193;29;20195;-76
2021/06/19 13:51:16;;;;;;;16.10;8.43;;;31.70;93.50;;;;;;4932310;29;20714;-76
2021/06/19 13:53:45;;;;;;;15.07;8.57;;;31.60;92.20;;;;;;4935513;28;20207;-76
2021/06/19 13:56:12;;;;;;;11.37;8.73;;;31.50;92.40;;;;;;4938794;29;20674;-76
2021/06/19 13:58:38;;;;;;;17.73;8.63;;;31.50;93.00;;;;;;4939791;29;20207;-76
2021/06/19 14:01:06;;;;;;;13.67;8.50;;;31.40;93.20;;;;;;4938091;29;20195;-76
2021/06/19 14:03:34;;;;;;;10.60;7.57;;;31.40;93.40;;;;;;4938062;29;20207;-77
2021/06/19 14:06:01;;;;;;;12.97;8.83;;;31.40;92.90;;;;;;4941798;28;20207;-76
2021/06/19 14:08:27;;;;;;;11.33;8.73;;;31.40;93.60;;;;;;4945722;29;20661;-76
2021/06/19 14:10:54;;;;;;;12.77;8.27;;;31.60;93.40;;;;;;4942258;29;20629;-76
2021/06/19 14:13:21;;;;;;;9.57;8.40;;;31.60;93.40;;;;;;4942613;28;20207;-77
2021/06/19 14:15:48;;;;;;;14.30;8.73;;;31.60;92.80;;;;;;4938524;29;20199;-76
2021/06/19 14:18:15;;;;;;;8.83;7.93;;;31.60;92.90;;;;;;4940406;29;20270;-78
2021/06/19 14:20:43;;;;;;;13.10;8.20;;;31.70;93.40;;;;;;4939932;29;20206;-76
2021/06/19 14:23:10;;;;;;;10.43;8.47;;;31.80;93.00;;;;;;4940507;29;20203;-77
2021/06/19 14:25:37;;;;;;;12.47;8.03;;;31.80;93.60;;;;;;4939493;29;20213;-76
2021/06/19 14:28:07;;;;;;;10.77;8.67;;;31.90;93.50;;;;;;4940427;29;20298;-76
2021/06/19 14:30:34;;;;;;;11.17;8.20;;;31.70;92.90;;;;;;4935431;29;20219;-76
2021/06/19 14:33:01;;;;;;;9.50;8.23;;;31.80;92.80;;;;;;4939365;29;20207;-77
2021/06/19 14:35:27;;;;;;;9.20;7.77;;;31.90;93.90;;;;;;4940575;29;20565;-76
2021/06/19 14:37:56;;;;;;;9.30;8.40;;;31.90;92.90;;;;;;4939210;29;20222;-76
2021/06/19 14:40:23;;;;;;;10.97;8.70;;;31.90;93.40;;;;;;4939132;29;20585;-76
2021/06/19 14:42:49;;;;;;;10.07;8.17;;;31.90;93.50;;;;;;4934412;29;20206;-78
2021/06/19 14:45:16;;;;;;;9.87;7.87;;;31.60;92.80;;;;;;4935371;29;20192;-76
2021/06/19 14:47:43;;;;;;;9.83;8.60;;;31.60;92.30;;;;;;4938596;29;20243;-77
2021/06/19 14:50:10;;;;;;;8.80;7.83;;;31.60;93.10;;;;;;4938500;29;20223;-76
2021/06/19 14:52:38;;;;;;;11.57;8.23;;;31.60;92.50;;;;;;4937062;29;20240;-75
2021/06/19 14:55:08;;;;;;;10.53;8.37;;;31.40;92.20;;;;;;4938154;29;20211;-75
2021/06/19 14:57:35;;;;;;;9.77;7.97;;;31.60;92.10;;;;;;4938280;29;20246;-76
2021/06/19 15:00:03;;;;;;;9.23;8.23;;;31.70;92.60;;;;;;4938342;29;20270;-76
2021/06/19 15:02:30;;;;;;;8.23;7.53;;;31.90;92.50;;;;;;4939625;29;20203;-75
2021/06/19 15:04:57;;;;;;;10.33;8.00;;;31.90;93.20;;;;;;4937894;29;20191;-76
2021/06/19 15:07:23;;;;;;;12.53;8.53;;;31.90;92.80;;;;;;4935266;29;20234;-77
2021/06/19 15:09:50;;;;;;;9.17;8.23;;;31.90;92.90;;;;;;4936779;29;20210;-76
2021/06/19 15:12:18;;;;;;;8.53;7.73;;;31.80;93.30;;;;;;4932439;29;20255;-76
2021/06/19 15:14:45;;;;;;;8.70;7.80;;;31.90;92.90;;;;;;4936187;29;20202;-76
2021/06/19 15:17:12;;;;;;;10.30;8.00;;;31.90;92.90;;;;;;4934082;29;20226;-75
2021/06/19 15:19:39;;;;;;;9.00;8.20;;;31.80;93.10;;;;;;4936462;29;20199;-78
2021/06/19 15:22:06;;;;;;;9.37;8.23;;;31.90;93.20;;;;;;4934275;29;20196;-75
2021/06/19 15:24:33;;;;;;;14.43;8.37;;;31.90;93.10;;;;;;4934202;29;20199;-76